createdAt,value
2022-08-06T00:00:15.719Z,1.40
2022-08-06T00:02:42.572Z,2.10
2022-08-06T00:05:09.559Z,1.88
2022-08-06T00:07:47.439Z,1.33
2022-08-06T00:10:17.302Z,1.80
2022-08-06T00:12:45.901Z,3.75
2022-08-06T00:15:14.875Z,1.45
2022-08-06T00:17:46.119Z,1.30
2022-08-06T00:20:25.527Z,1.00
2022-08-06T00:22:56.562Z,3.55
2022-08-06T00:25:23.133Z,1.33
2022-08-06T00:27:51.490Z,1.63
2022-08-06T00:30:21.920Z,1.15
2022-08-06T00:32:51.561Z,1.60
2022-08-06T00:35:21.633Z,2.22
2022-08-06T00:37:54.915Z,0.90
2022-08-06T00:40:29.168Z,1.30
2022-08-06T00:42:56.982Z,1.88
2022-08-06T00:45:25.342Z,1.30
2022-08-06T00:48:01.795Z,2.83
2022-08-06T00:50:31.245Z,1.70
2022-08-06T00:52:57.829Z,1.52
2022-08-06T00:55:32.196Z,2.10
2022-08-06T00:58:04.759Z,1.63
2022-08-06T01:00:38.669Z,1.30
2022-08-06T01:03:07.280Z,2.00
2022-08-06T01:06:47.020Z,3.22
2022-08-06T01:08:32.073Z,1.98
2022-08-06T01:10:58.564Z,3.33
2022-08-06T01:14:01.714Z,2.90
2022-08-06T01:16:29.892Z,6.63
2022-08-06T01:19:50.996Z,2.40
2022-08-06T01:22:33.912Z,1.08
2022-08-06T01:25:11.089Z,2.25
2022-08-06T01:27:43.994Z,4.35
2022-08-06T01:30:25.037Z,2.47
2022-08-06T01:32:59.647Z,1.00
2022-08-06T01:35:47.760Z,2.08
2022-08-06T01:38:26.875Z,1.20
2022-08-06T01:40:54.443Z,2.58
2022-08-06T01:44:04.772Z,1.20
2022-08-06T01:46:09.546Z,3.10
2022-08-06T01:48:38.198Z,2.08
2022-08-06T01:51:05.812Z,2.38
2022-08-06T01:54:05.793Z,2.13
2022-08-06T01:56:57.856Z,4.68
2022-08-06T01:59:22.628Z,1.20
2022-08-06T02:01:54.257Z,1.33
2022-08-06T02:04:24.476Z,1.98
2022-08-06T02:06:51.782Z,3.60
2022-08-06T02:09:22.786Z,1.48
2022-08-06T02:12:17.475Z,2.83
2022-08-06T02:15:56.129Z,3.75
2022-08-06T02:18:34.212Z,1.00
2022-08-06T02:21:18.868Z,1.50
2022-08-06T02:23:47.038Z,1.30
2022-08-06T02:26:15.851Z,1.35
2022-08-06T02:28:44.291Z,2.45
2022-08-06T02:31:16.706Z,1.35
2022-08-06T02:34:03.226Z,1.75
2022-08-06T02:36:50.790Z,2.85
2022-08-06T02:39:47.529Z,1.92
2022-08-06T02:42:19.355Z,1.00
2022-08-06T02:44:54.155Z,0.93
2022-08-06T02:47:55.445Z,0.88
2022-08-06T02:50:38.914Z,1.40
2022-08-06T02:53:24.251Z,2.00
2022-08-06T02:56:00.279Z,2.55
2022-08-06T02:58:39.532Z,2.20
2022-08-06T03:01:22.221Z,1.50
2022-08-06T03:03:54.746Z,1.13
2022-08-06T03:06:28.561Z,1.77
2022-08-06T03:08:57.969Z,3.00
2022-08-06T03:11:25.304Z,2.45
2022-08-06T03:13:52.747Z,1.30
2022-08-06T03:16:19.931Z,2.70
2022-08-06T03:18:51.072Z,1.35
2022-08-06T03:21:38.115Z,1.65
2022-08-06T03:24:05.579Z,2.65
2022-08-06T03:26:32.718Z,2.72
2022-08-06T03:29:01.615Z,0.93
2022-08-06T03:31:33.857Z,2.35
2022-08-06T03:34:03.947Z,1.38
2022-08-06T03:36:30.803Z,1.63
2022-08-06T03:39:05.048Z,1.95
2022-08-06T03:41:39.659Z,1.00
2022-08-06T03:44:07.428Z,1.38
2022-08-06T03:46:38.829Z,2.70
2022-08-06T03:49:07.148Z,1.58
2022-08-06T03:51:52.354Z,3.33
2022-08-06T03:54:28.345Z,4.60
2022-08-06T03:57:07.811Z,1.38
2022-08-06T03:59:57.595Z,1.10
2022-08-06T04:02:36.974Z,2.50
2022-08-06T04:05:14.529Z,2.55
2022-08-06T04:07:54.991Z,1.38
2022-08-06T04:10:34.298Z,2.28
2022-08-06T04:13:37.831Z,1.83
2022-08-06T04:15:51.160Z,2.08
2022-08-06T04:18:22.418Z,2.80
2022-08-06T04:20:52.869Z,1.58
2022-08-06T04:23:34.895Z,1.50
2022-08-06T04:26:07.373Z,2.00
2022-08-06T04:28:43.364Z,2.28
2022-08-06T04:31:45.364Z,2.60
2022-08-06T04:34:11.892Z,1.45
2022-08-06T04:36:39.130Z,1.77
2022-08-06T04:39:09.021Z,1.33
2022-08-06T04:41:41.936Z,2.17
2022-08-06T04:44:13.804Z,1.63
2022-08-06T04:46:41.018Z,0.90
2022-08-06T04:49:07.906Z,1.25
2022-08-06T04:52:35.928Z,1.30
2022-08-06T04:54:29.921Z,1.27
2022-08-06T04:56:56.716Z,1.00
2022-08-06T04:59:25.138Z,4.00
2022-08-06T05:02:00.787Z,1.77
2022-08-06T05:04:30.548Z,4.20
2022-08-06T05:07:15.102Z,3.35
2022-08-06T05:09:53.971Z,2.28
2022-08-06T05:12:28.403Z,2.83
2022-08-06T05:14:59.940Z,3.45
2022-08-06T05:17:34.861Z,3.08
2022-08-06T05:20:27.783Z,1.65
2022-08-06T05:23:03.195Z,4.50
2022-08-06T05:25:36.256Z,3.85
2022-08-06T05:28:10.373Z,3.10
2022-08-06T05:30:49.180Z,3.70
2022-08-06T05:33:30.769Z,3.38
2022-08-06T05:36:02.542Z,3.97
2022-08-06T05:38:35.820Z,2.10
2022-08-06T05:41:08.759Z,4.70
2022-08-06T05:43:58.351Z,5.68
2022-08-06T05:46:24.634Z,3.25
2022-08-06T05:49:55.922Z,4.22
2022-08-06T05:52:10.584Z,4.70
2022-08-06T05:54:56.647Z,4.15
2022-08-06T05:57:41.234Z,10.32
2022-08-06T06:00:42.579Z,3.80
2022-08-06T06:03:04.651Z,4.10
2022-08-06T06:06:06.344Z,4.43
2022-08-06T06:08:37.342Z,7.22
2022-08-06T06:11:06.204Z,5.00
2022-08-06T06:13:40.164Z,4.20
2022-08-06T06:16:34.194Z,2.75
2022-08-06T06:19:39.903Z,2.33
2022-08-06T06:22:27.873Z,4.15
2022-08-06T06:25:13.220Z,4.78
2022-08-06T06:27:46.784Z,3.42
2022-08-06T06:30:39.520Z,3.72
2022-08-06T06:33:36.993Z,5.22
2022-08-06T06:36:46.626Z,4.57
2022-08-06T06:39:37.540Z,5.05
2022-08-06T06:42:11.536Z,4.25
2022-08-06T06:46:06.540Z,3.33
2022-08-06T06:47:59.842Z,4.97
2022-08-06T06:50:28.684Z,4.95
2022-08-06T06:52:56.063Z,4.32
2022-08-06T06:55:52.587Z,4.13
2022-08-06T06:58:35.666Z,6.55
2022-08-06T07:01:27.208Z,4.20
2022-08-06T07:03:52.086Z,5.18
2022-08-06T07:06:32.027Z,6.35
2022-08-06T07:09:12.361Z,5.95
2022-08-06T07:11:46.876Z,6.32
2022-08-06T07:14:33.550Z,5.65
2022-08-06T07:17:01.292Z,5.03
2022-08-06T07:19:28.215Z,5.50
2022-08-06T07:21:57.992Z,4.40
2022-08-06T07:24:35.750Z,5.53
2022-08-06T07:27:05.991Z,6.53
2022-08-06T07:29:49.229Z,5.40
2022-08-06T07:32:31.806Z,5.28
2022-08-06T07:35:00.155Z,5.45
2022-08-06T07:37:38.347Z,5.07
2022-08-06T07:40:07.412Z,5.85
2022-08-06T07:42:36.237Z,7.57
2022-08-06T07:45:05.709Z,5.00
2022-08-06T07:47:54.169Z,5.80
2022-08-06T07:50:23.440Z,5.88
2022-08-06T07:53:00.944Z,6.78
2022-08-06T07:55:37.471Z,4.22
2022-08-06T07:58:08.065Z,4.20
2022-08-06T08:00:39.355Z,4.85
2022-08-06T08:03:57.609Z,5.80
2022-08-06T08:06:23.324Z,6.82
2022-08-06T08:08:53.683Z,6.93
2022-08-06T08:11:37.475Z,4.95
2022-08-06T08:14:12.784Z,4.45
2022-08-06T08:16:41.644Z,5.05
2022-08-06T08:19:24.846Z,6.18
2022-08-06T08:21:53.805Z,5.53
2022-08-06T08:24:20.762Z,4.85
2022-08-06T08:27:04.388Z,5.60
2022-08-06T08:29:36.415Z,5.88
2022-08-06T08:32:16.842Z,6.80
2022-08-06T08:34:52.012Z,7.30
2022-08-06T08:39:47.668Z,5.88
2022-08-06T08:42:31.569Z,5.85
2022-08-06T08:45:02.012Z,5.70
2022-08-06T08:47:46.612Z,5.40
2022-08-06T08:50:22.265Z,5.50
2022-08-06T08:52:59.819Z,6.10
2022-08-06T08:57:02.543Z,5.60
2022-08-06T08:58:39.531Z,5.95
2022-08-06T09:01:00.708Z,5.90
2022-08-06T09:03:27.414Z,6.53
2022-08-06T09:05:54.044Z,7.13
2022-08-06T09:08:59.229Z,6.32
2022-08-06T09:11:12.290Z,5.35
2022-08-06T09:13:57.512Z,5.15
2022-08-06T09:16:31.787Z,5.32
2022-08-06T09:19:01.667Z,6.20
2022-08-06T09:21:31.023Z,4.95
2022-08-06T09:24:05.010Z,5.20
2022-08-06T09:26:53.796Z,5.72
2022-08-06T09:29:33.606Z,6.03
2022-08-06T09:32:15.460Z,5.30
2022-08-06T09:34:46.766Z,10.00
2022-08-06T09:37:30.314Z,4.97
2022-08-06T09:40:18.365Z,9.75
2022-08-06T09:42:52.885Z,5.88
2022-08-06T09:45:42.593Z,7.07
2022-08-06T09:48:17.501Z,6.55
2022-08-06T09:50:51.949Z,5.05
2022-08-06T09:53:21.607Z,4.72
2022-08-06T09:55:57.945Z,6.32
2022-08-06T09:58:32.116Z,6.30
2022-08-06T10:01:21.291Z,5.65
2022-08-06T10:04:44.420Z,5.22
2022-08-06T10:07:24.702Z,8.85
2022-08-06T10:09:54.218Z,8.48
2022-08-06T10:12:25.362Z,6.43
2022-08-06T10:14:53.461Z,5.93
2022-08-06T10:17:22.666Z,6.63
2022-08-06T10:20:18.489Z,5.35
2022-08-06T10:22:57.659Z,6.05
2022-08-06T10:25:30.171Z,3.17
2022-08-06T10:27:58.051Z,2.85
2022-08-06T10:30:24.976Z,4.93
2022-08-06T10:33:00.225Z,3.35
2022-08-06T10:35:29.859Z,4.65
2022-08-06T10:38:04.673Z,3.05
2022-08-06T10:40:43.320Z,4.82
2022-08-06T10:43:27.113Z,4.78
2022-08-06T10:46:01.808Z,6.10
2022-08-06T10:50:23.309Z,5.55
2022-08-06T10:51:55.953Z,6.80
2022-08-06T10:54:19.232Z,6.50
2022-08-06T10:56:47.282Z,5.13
2022-08-06T10:59:15.438Z,5.53
2022-08-06T11:02:07.191Z,5.05
2022-08-06T11:04:52.655Z,4.63
2022-08-06T11:08:08.680Z,4.80
2022-08-06T11:10:56.344Z,4.18
2022-08-06T11:13:52.475Z,4.40
2022-08-06T11:16:28.453Z,8.23
2022-08-06T11:19:10.343Z,4.97
2022-08-06T11:22:01.998Z,4.40
2022-08-06T11:24:30.330Z,3.63
2022-08-06T11:27:10.832Z,4.90
2022-08-06T11:30:13.051Z,3.92
2022-08-06T11:32:53.442Z,5.18
2022-08-06T11:35:42.720Z,5.13
2022-08-06T11:38:44.789Z,5.88
2022-08-06T11:41:44.885Z,3.63
2022-08-06T11:44:06.974Z,4.85
2022-08-06T11:46:35.804Z,5.13
2022-08-06T11:49:06.126Z,4.93
2022-08-06T11:51:44.379Z,3.70
2022-08-06T11:54:16.695Z,4.75
2022-08-06T11:57:02.634Z,5.03
2022-08-06T11:59:30.798Z,4.78
2022-08-06T12:01:58.448Z,3.85
2022-08-06T12:04:36.872Z,4.00
2022-08-06T12:07:33.229Z,5.60
2022-08-06T12:10:06.884Z,3.92
2022-08-06T12:12:37.744Z,3.88
2022-08-06T12:15:59.280Z,7.35
2022-08-06T12:18:20.384Z,5.75
2022-08-06T12:20:54.820Z,5.22
2022-08-06T12:23:30.106Z,5.03
2022-08-06T12:26:11.464Z,4.43
2022-08-06T12:28:38.598Z,5.85
2022-08-06T12:31:06.010Z,4.07
2022-08-06T12:33:52.121Z,4.22
2022-08-06T12:36:31.769Z,6.07
2022-08-06T12:39:00.405Z,3.50
2022-08-06T12:41:46.827Z,4.30
2022-08-06T12:44:15.065Z,3.67
2022-08-06T12:46:55.066Z,2.95
2022-08-06T12:49:42.042Z,3.67
2022-08-06T12:52:18.839Z,5.88
2022-08-06T12:54:46.064Z,3.90
2022-08-06T12:57:28.349Z,3.08
2022-08-06T13:00:14.821Z,3.67
2022-08-06T13:02:42.000Z,4.75
2022-08-06T13:05:08.735Z,4.03
2022-08-06T13:07:42.884Z,3.88
2022-08-06T13:10:34.451Z,3.80
2022-08-06T13:14:13.665Z,2.63
2022-08-06T13:16:05.412Z,5.05
2022-08-06T13:18:47.416Z,4.95
2022-08-06T13:21:18.235Z,2.55
2022-08-06T13:23:48.369Z,4.03
2022-08-06T13:26:28.066Z,3.00
2022-08-06T13:30:32.047Z,4.35
2022-08-06T13:32:19.641Z,5.03
2022-08-06T13:34:58.313Z,3.15
2022-08-06T13:37:57.314Z,3.90
2022-08-06T13:40:38.231Z,2.55
2022-08-06T13:43:09.027Z,2.22
2022-08-06T13:45:56.623Z,3.45
2022-08-06T13:48:23.778Z,3.28
2022-08-06T13:50:50.650Z,3.15
2022-08-06T13:53:17.318Z,2.97
2022-08-06T13:56:00.276Z,2.97
2022-08-06T13:58:30.500Z,4.25
2022-08-06T14:00:57.452Z,2.63
2022-08-06T14:03:24.423Z,3.95
2022-08-06T14:05:51.403Z,3.28
2022-08-06T14:08:26.704Z,1.90
2022-08-06T14:11:01.830Z,3.92
2022-08-06T14:13:28.371Z,2.55
2022-08-06T14:15:55.426Z,2.10
2022-08-06T14:18:23.026Z,2.70
2022-08-06T14:20:55.028Z,3.70
2022-08-06T14:23:21.653Z,4.28
2022-08-06T14:26:00.490Z,3.95
2022-08-06T14:28:30.171Z,4.10
2022-08-06T14:30:58.012Z,3.67
2022-08-06T14:33:36.903Z,3.50
2022-08-06T14:36:05.891Z,2.40
2022-08-06T14:38:34.433Z,4.15
2022-08-06T14:41:49.894Z,2.08
2022-08-06T14:44:25.343Z,2.83
2022-08-06T14:46:52.153Z,1.67
2022-08-06T14:49:18.651Z,2.47
2022-08-06T14:52:19.534Z,2.13
2022-08-06T14:54:33.073Z,2.53
2022-08-06T14:57:16.069Z,4.20
2022-08-06T14:59:49.190Z,3.47
2022-08-06T15:02:24.953Z,3.38
2022-08-06T15:04:53.180Z,1.80
2022-08-06T15:07:25.434Z,6.13
2022-08-06T15:10:06.183Z,3.03
2022-08-06T15:12:48.651Z,1.63
2022-08-06T15:15:17.832Z,2.05
2022-08-06T15:18:05.714Z,2.22
2022-08-06T15:20:32.014Z,1.90
2022-08-06T15:23:00.098Z,3.50
2022-08-06T15:26:00.248Z,2.75
2022-08-06T15:28:14.666Z,3.50
2022-08-06T15:30:41.252Z,2.53
2022-08-06T15:33:13.609Z,1.83
2022-08-06T15:35:56.923Z,2.13
2022-08-06T15:38:27.048Z,1.92
2022-08-06T15:40:54.094Z,2.97
2022-08-06T15:43:23.423Z,2.10
2022-08-06T15:45:58.227Z,2.90
2022-08-06T15:48:28.202Z,4.18
2022-08-06T15:51:28.539Z,2.30
2022-08-06T15:53:54.115Z,3.05
2022-08-06T15:56:33.342Z,2.97
2022-08-06T15:59:01.904Z,3.28
2022-08-06T16:01:34.559Z,2.92
2022-08-06T16:04:19.352Z,3.67
2022-08-06T16:06:49.589Z,4.80
2022-08-06T16:09:26.909Z,3.58
2022-08-06T16:11:54.160Z,2.38
2022-08-06T16:14:33.161Z,3.63
2022-08-06T16:17:06.377Z,2.22
2022-08-06T16:19:49.640Z,3.22
2022-08-06T16:22:17.937Z,2.00
2022-08-06T16:24:44.680Z,2.25
2022-08-06T16:27:11.591Z,2.63
2022-08-06T16:29:41.733Z,3.55
2022-08-06T16:32:10.419Z,3.60
2022-08-06T16:34:37.378Z,1.60
2022-08-06T16:37:28.719Z,3.42
2022-08-06T16:40:00.029Z,3.58
2022-08-06T16:42:28.505Z,2.75
2022-08-06T16:45:02.431Z,4.60
2022-08-06T16:50:36.832Z,2.63
2022-08-06T16:54:08.602Z,2.30
2022-08-06T16:55:55.281Z,1.30
2022-08-06T16:58:34.341Z,1.63
2022-08-06T17:02:14.863Z,1.95
2022-08-06T17:06:42.010Z,3.90
2022-08-06T17:09:16.893Z,2.70
2022-08-06T17:12:00.616Z,1.92
2022-08-06T17:14:29.725Z,1.58
2022-08-06T17:17:01.304Z,2.13
2022-08-06T17:19:32.108Z,3.53
2022-08-06T17:24:47.758Z,2.15
2022-08-06T17:27:44.586Z,4.57
2022-08-06T17:30:08.190Z,3.53
2022-08-06T17:32:36.905Z,1.55
2022-08-06T17:35:14.423Z,3.90
2022-08-06T17:37:45.884Z,3.28
2022-08-06T17:40:19.229Z,1.70
2022-08-06T17:43:00.545Z,1.58
2022-08-06T17:45:31.113Z,2.70
2022-08-06T17:47:58.192Z,1.58
2022-08-06T17:50:40.786Z,1.50
2022-08-06T17:53:19.490Z,2.10
2022-08-06T17:55:59.390Z,2.00
2022-08-06T17:58:39.178Z,3.75
2022-08-06T18:01:44.398Z,2.50
2022-08-06T18:04:07.191Z,2.20
2022-08-06T18:06:49.683Z,3.03
2022-08-06T18:10:11.755Z,3.67
2022-08-06T18:12:04.352Z,3.17
2022-08-06T18:14:33.157Z,2.88
2022-08-06T18:17:00.862Z,2.70
2022-08-06T18:19:36.437Z,1.40
2022-08-06T18:22:12.124Z,2.33
2022-08-06T18:24:50.549Z,2.35
2022-08-06T18:27:53.989Z,2.15
2022-08-06T18:30:05.214Z,2.75
2022-08-06T18:32:33.748Z,4.20
2022-08-06T18:35:04.379Z,3.22
2022-08-06T18:38:00.198Z,2.75
2022-08-06T18:40:39.804Z,3.10
2022-08-06T18:43:06.239Z,1.40
2022-08-06T18:45:36.978Z,2.10
2022-08-06T18:48:25.188Z,2.97
2022-08-06T18:50:54.966Z,2.80
2022-08-06T18:53:26.514Z,1.52
2022-08-06T18:56:09.266Z,2.90
2022-08-06T18:58:35.815Z,2.05
2022-08-06T19:01:02.403Z,2.22
2022-08-06T19:03:50.284Z,1.75
2022-08-06T19:06:18.022Z,2.05
2022-08-06T19:08:44.613Z,1.40
2022-08-06T19:11:11.159Z,3.22
2022-08-06T19:14:16.206Z,1.60
2022-08-06T19:16:25.936Z,2.50
2022-08-06T19:18:57.744Z,3.53
2022-08-06T19:21:26.304Z,2.22
2022-08-06T19:24:01.881Z,1.55
2022-08-06T19:26:33.052Z,1.50
2022-08-06T19:29:02.231Z,1.95
2022-08-06T19:31:43.100Z,4.40
2022-08-06T19:34:14.224Z,2.13
2022-08-06T19:36:42.784Z,1.90
2022-08-06T19:39:52.228Z,3.72
2022-08-06T19:42:01.431Z,3.40
2022-08-06T19:44:33.002Z,2.38
2022-08-06T19:47:02.644Z,1.75
2022-08-06T19:49:40.875Z,2.90
2022-08-06T19:52:11.433Z,3.85
2022-08-06T19:54:41.524Z,3.50
2022-08-06T19:57:13.295Z,3.05
2022-08-06T20:00:55.483Z,2.72
2022-08-06T20:02:28.985Z,2.25
2022-08-06T20:04:56.556Z,2.17
2022-08-06T20:07:25.646Z,2.03
2022-08-06T20:10:01.066Z,2.65
2022-08-06T20:12:33.738Z,2.22
2022-08-06T20:15:04.683Z,2.30
2022-08-06T20:17:46.294Z,2.53
2022-08-06T20:20:19.430Z,3.33
2022-08-06T20:22:56.434Z,2.95
2022-08-06T20:25:23.830Z,2.70
2022-08-06T20:29:07.785Z,4.97
2022-08-06T20:30:44.573Z,2.42
2022-08-06T20:33:19.414Z,4.20
2022-08-06T20:35:58.099Z,2.25
2022-08-06T20:38:39.942Z,1.80
2022-08-06T20:41:58.218Z,4.70
2022-08-06T20:44:06.003Z,2.60
2022-08-06T20:49:48.072Z,2.15
2022-08-06T20:52:11.002Z,2.83
2022-08-06T20:57:19.005Z,2.20
2022-08-06T20:59:50.661Z,2.35
2022-08-06T21:02:25.811Z,2.67
2022-08-06T21:05:12.874Z,4.45
2022-08-06T21:07:44.169Z,2.45
2022-08-06T21:10:11.559Z,3.05
2022-08-06T21:12:58.677Z,5.45
2022-08-06T21:15:42.033Z,3.38
2022-08-06T21:18:11.886Z,3.55
2022-08-06T21:20:40.991Z,2.92
2022-08-06T21:23:14.658Z,2.40
2022-08-06T21:25:43.243Z,2.47
2022-08-06T21:28:13.231Z,3.85
2022-08-06T21:30:40.971Z,2.83
2022-08-06T21:33:07.621Z,3.15
2022-08-06T21:35:35.055Z,3.05
2022-08-06T21:38:01.933Z,5.00
2022-08-06T21:40:33.745Z,5.50
2022-08-06T21:43:01.027Z,4.47
2022-08-06T21:45:50.470Z,3.85
2022-08-06T21:48:16.273Z,4.45
2022-08-06T21:50:56.662Z,4.45
2022-08-06T21:53:52.788Z,3.60
2022-08-06T21:56:36.984Z,3.67
2022-08-06T21:59:00.284Z,5.10
2022-08-06T22:02:09.035Z,3.10
2022-08-06T22:04:35.246Z,3.28
2022-08-06T22:07:01.014Z,3.22
2022-08-06T22:09:38.440Z,4.03
2022-08-06T22:12:38.939Z,4.10
2022-08-06T22:14:58.731Z,4.20
2022-08-06T22:17:59.371Z,3.47
2022-08-06T22:20:21.703Z,3.20
2022-08-06T22:22:54.407Z,3.47
2022-08-06T22:25:23.251Z,3.17
2022-08-06T22:27:55.615Z,3.55
2022-08-06T22:30:42.534Z,4.28
2022-08-06T22:33:11.948Z,3.83
2022-08-06T22:35:57.502Z,5.07
2022-08-06T22:38:27.618Z,3.92
2022-08-06T22:40:54.775Z,6.13
2022-08-06T22:43:29.574Z,3.72
2022-08-06T22:46:10.522Z,4.40
2022-08-06T22:48:37.259Z,4.05
2022-08-06T22:51:06.021Z,3.90
2022-08-06T22:54:26.639Z,5.30
2022-08-06T22:56:27.988Z,6.07
2022-08-06T22:59:05.713Z,4.68
2022-08-06T23:02:07.381Z,3.72
2022-08-06T23:04:30.933Z,3.78
2022-08-06T23:06:57.513Z,4.88
2022-08-06T23:09:24.057Z,5.05
2022-08-06T23:11:59.097Z,6.25
2022-08-06T23:14:31.775Z,4.80
2022-08-06T23:16:58.931Z,5.32
2022-08-06T23:19:26.073Z,5.88
2022-08-06T23:22:02.267Z,4.53
2022-08-06T23:24:36.068Z,5.35
2022-08-06T23:27:04.707Z,5.88
2022-08-06T23:29:34.900Z,5.18
2022-08-06T23:32:21.998Z,5.25
2022-08-06T23:34:49.065Z,4.88
2022-08-06T23:37:16.454Z,4.78
2022-08-06T23:40:06.103Z,4.53
2022-08-06T23:42:31.090Z,4.97
2022-08-06T23:44:57.671Z,5.97
2022-08-06T23:47:52.292Z,4.60
2022-08-06T23:50:11.811Z,6.38
2022-08-06T23:52:41.955Z,4.80
2022-08-06T23:55:26.113Z,5.13
2022-08-06T23:57:57.909Z,5.25
